createdAt,value
2019-06-07T00:04:41.987Z,65.72
2019-06-07T00:24:51.235Z,65.67
2019-06-07T00:45:00.534Z,66.36
2019-06-07T01:05:10.053Z,67.04
2019-06-07T01:25:22.338Z,67.16
2019-06-07T01:45:31.131Z,66.79
2019-06-07T02:05:41.221Z,66.60
2019-06-07T02:25:50.905Z,66.73
2019-06-07T02:46:24.466Z,67.33
2019-06-07T03:06:15.393Z,66.81
2019-06-07T03:26:31.229Z,67.14
2019-06-07T03:46:42.965Z,66.99
2019-06-07T04:06:52.080Z,67.62
2019-06-07T04:27:00.816Z,67.81
2019-06-07T04:47:12.121Z,67.46
2019-06-07T05:07:21.758Z,68.79
2019-06-07T05:27:33.605Z,69.05
2019-06-07T05:47:50.171Z,68.73
2019-06-07T06:07:51.892Z,60.33
2019-06-07T06:28:11.690Z,53.46
2019-06-07T06:48:11.983Z,52.77
2019-06-07T07:08:23.979Z,52.42
2019-06-07T07:28:33.973Z,52.11
2019-06-07T07:48:43.581Z,49.21
2019-06-07T08:08:55.907Z,48.08
2019-06-07T08:29:04.861Z,46.35
2019-06-07T08:49:13.845Z,47.46
2019-06-07T09:09:24.577Z,44.16
2019-06-07T09:29:34.694Z,43.25
2019-06-07T09:49:45.175Z,43.51
2019-06-07T10:10:12.575Z,41.83
2019-06-07T10:30:08.649Z,41.70
2019-06-07T10:50:18.891Z,40.03
2019-06-07T11:10:47.141Z,39.41
2019-06-07T11:30:58.993Z,39.86
2019-06-07T11:51:12.665Z,39.84
2019-06-07T12:31:49.508Z,37.21
2019-06-07T12:51:58.008Z,38.00
2019-06-07T13:12:06.963Z,38.09
2019-06-07T13:32:17.908Z,37.76
2019-06-07T13:52:27.373Z,39.94
2019-06-07T14:12:37.826Z,40.94
2019-06-07T14:32:47.832Z,41.43
2019-06-07T14:52:56.832Z,41.78
2019-06-07T15:13:06.247Z,44.15
2019-06-07T15:33:16.030Z,45.26
2019-06-07T15:53:26.071Z,45.21
2019-06-07T16:13:36.630Z,45.97
2019-06-07T16:33:47.417Z,45.75
2019-06-07T16:53:57.401Z,45.14
2019-06-07T17:14:07.229Z,47.38
2019-06-07T17:34:16.974Z,49.44
2019-06-07T17:54:29.919Z,48.81
2019-06-07T18:14:42.022Z,52.36
2019-06-07T18:34:56.010Z,54.15
2019-06-07T18:55:08.070Z,56.17
2019-06-07T19:15:19.387Z,57.26
2019-06-07T19:35:34.367Z,58.65
2019-06-07T19:55:44.044Z,59.98
2019-06-07T20:15:55.113Z,61.46
2019-06-07T20:36:04.883Z,61.71
2019-06-07T20:56:16.967Z,63.83
2019-06-07T21:16:25.921Z,63.49
2019-06-07T21:36:34.583Z,63.77
2019-06-07T21:56:43.859Z,64.51
2019-06-07T22:16:55.820Z,64.55
2019-06-07T22:37:04.587Z,64.87
2019-06-07T22:57:19.640Z,65.24
2019-06-07T23:17:33.797Z,65.38
2019-06-07T23:37:46.019Z,65.86
2019-06-07T23:57:55.734Z,66.02
